Opasatika, Canada
Current Conditions -  °F | °C
As of 1:00 PM on Thursday 23 Oct 2014 (Local Time) from CYYU Reporting Station
Few Clouds Few Clouds  
Wind Chill: 52°   Ceiling: Unl
Heat Index: 52°   Visibility: 15mi
Dew Point: 32°   Wind: 8mph
Humidity: 47%   Direction: 180°S
Pressure: 30.1"   Gusts: NA
Location:  49.53°N, 82.87°W
Report Text: CYYU 231700Z 18007KT 15SM FEW240 11/M00 A3010 RMK CI1 SLP204
Loading
Personal Weather Stations






























Interactive Weather Map New forecast layout! Learn more

10-Day Weather Forecast

Advertisements
Track Severe Weather on mobile